Station History

Weather Underground - logo

Station Historical Data
Daily Summary for January 23, 2018 Units:  Both    English   Metric
« Previous Day
Next Day »
Daily Weekly Monthly Yearly Custom
  High: Low: Average:
Temperature: 62.0 °F /  16.7 °C 34.9 °F /  1.6 °C 47.2 °F /  8.4 °C
Dew Point: 47.2 °F /  8.4 °C 33.3 °F /  0.7 °C 40.9 °F /  4.9 °C
Humidity: 95 % 54 % 80 %
Wind Speed: 4.6 mph /  7.4 km/h - 0.4 mph /  0.6 km/h
Wind Gust: 3.5 mph /  5.6 km/h - -
Wind:- - WNW
Pressure: 30.33 in /  1027 hPa 30.22 in /  1023.2 hPa -
Precipitation: 0.00 in /  0 mm    
Historical Graphs
 
 
Tabular Data for January 23, 2018
Time Temperature Dew Point Pressure Wind Wind Speed Wind Gust Humidity Rainfall Rate (Hourly)
00:02 41.3 °F /  5.2 °C 38.6 °F /  3.7 °C 30.31 in /  1026.3 hPa Calm     90 % 0.00 in /  0 mm
00:07 41.2 °F /  5.1 °C 38.5 °F /  3.6 °C 30.31 in /  1026.3 hPa NNW 1.2 mph /  1.9 km/h   90 % 0.00 in /  0 mm
00:12 41.7 °F /  5.4 °C 39.0 °F /  3.9 °C 30.31 in /  1026.3 hPa NNW 1.2 mph /  1.9 km/h 1.2 mph /  1.9 km/h 90 % 0.00 in /  0 mm
00:17 42.0 °F /  5.6 °C 39.0 °F /  3.9 °C 30.31 in /  1026.3 hPa North 1.2 mph /  1.9 km/h   89 % 0.00 in /  0 mm
00:27 42.0 °F /  5.6 °C 38.7 °F /  3.7 °C 30.31 in /  1026.3 hPa Calm     88 % 0.00 in /  0 mm
00:32 41.9 °F /  5.5 °C 38.3 °F /  3.5 °C 30.31 in /  1026.3 hPa Calm     87 % 0.00 in /  0 mm
00:37 41.6 °F /  5.3 °C 38.3 °F /  3.5 °C 30.31 in /  1026.3 hPa NNW 1.2 mph /  1.9 km/h   88 % 0.00 in /  0 mm
00:42 41.5 °F /  5.3 °C 38.2 °F /  3.4 °C 30.31 in /  1026.3 hPa NNW 1.2 mph /  1.9 km/h   88 % 0.00 in /  0 mm
00:47 41.3 °F /  5.2 °C 38.0 °F /  3.3 °C 30.31 in /  1026.3 hPa NNW 1.2 mph /  1.9 km/h   88 % 0.00 in /  0 mm
00:52 41.3 °F /  5.2 °C 38.0 °F /  3.3 °C 30.31 in /  1026.3 hPa Calm     88 % 0.00 in /  0 mm
00:57 41.5 °F /  5.3 °C 38.5 °F /  3.6 °C 30.31 in /  1026.3 hPa NW 1.2 mph /  1.9 km/h 1.2 mph /  1.9 km/h 89 % 0.00 in /  0 mm
01:02 41.6 °F /  5.3 °C 38.3 °F /  3.5 °C 30.31 in /  1026.3 hPa Calm     88 % 0.00 in /  0 mm
01:05 41.8 °F /  5.4 °C 38.5 °F /  3.6 °C 30.31 in /  1026.3 hPa WNW 1.2 mph /  1.9 km/h   88 % 0.00 in /  0 mm
01:10 42.1 °F /  5.6 °C 38.8 °F /  3.8 °C 30.31 in /  1026.3 hPa WNW 1.2 mph /  1.9 km/h   88 % 0.00 in /  0 mm
01:15 42.3 °F /  5.7 °C 38.7 °F /  3.7 °C 30.31 in /  1026.3 hPa Calm     87 % 0.00 in /  0 mm
01:20 42.5 °F /  5.8 °C 38.9 °F /  3.8 °C 30.31 in /  1026.3 hPa NNW 1.0 mph /  1.6 km/h   87 % 0.00 in /  0 mm
01:25 42.6 °F /  5.9 °C 39.0 °F /  3.9 °C 30.31 in /  1026.3 hPa Calm     87 % 0.00 in /  0 mm
01:30 42.7 °F /  5.9 °C 38.8 °F /  3.8 °C 30.31 in /  1026.3 hPa NNW 1.2 mph /  1.9 km/h   86 % 0.00 in /  0 mm
01:35 42.7 °F /  5.9 °C 38.8 °F /  3.8 °C 30.31 in /  1026.3 hPa Calm     86 % 0.00 in /  0 mm
01:40 42.5 °F /  5.8 °C 38.6 °F /  3.7 °C 30.31 in /  1026.3 hPa Calm     86 % 0.00 in /  0 mm
01:45 42.4 °F /  5.8 °C 38.5 °F /  3.6 °C 30.31 in /  1026.3 hPa Calm     86 % 0.00 in /  0 mm
01:50 42.2 °F /  5.7 °C 38.6 °F /  3.7 °C 30.31 in /  1026.3 hPa Calm     87 % 0.00 in /  0 mm
01:55 41.9 °F /  5.5 °C 38.0 °F /  3.3 °C 30.31 in /  1026.3 hPa Calm   0.1 mph /  0.2 km/h 86 % 0.00 in /  0 mm
02:00 41.6 °F /  5.3 °C 38.0 °F /  3.3 °C 30.31 in /  1026.3 hPa Calm     87 % 0.00 in /  0 mm
02:05 41.3 °F /  5.2 °C 37.7 °F /  3.2 °C 30.31 in /  1026.3 hPa NNW 4.6 mph /  7.4 km/h   87 % 0.00 in /  0 mm
02:10 40.7 °F /  4.8 °C 36.8 °F /  2.7 °C 30.31 in /  1026.3 hPa Calm     86 % 0.00 in /  0 mm
02:15 39.5 °F /  4.2 °C 36.2 °F /  2.3 °C 30.31 in /  1026.3 hPa Calm     88 % 0.00 in /  0 mm
02:20 39.1 °F /  3.9 °C 36.1 °F /  2.3 °C 30.31 in /  1026.3 hPa Calm     89 % 0.00 in /  0 mm
02:25 38.7 °F /  3.7 °C 36.0 °F /  2.2 °C 30.31 in /  1026.3 hPa Calm     90 % 0.00 in /  0 mm
02:30 38.4 °F /  3.6 °C 35.7 °F /  2.1 °C 30.31 in /  1026.3 hPa Calm     90 % 0.00 in /  0 mm
02:35 37.9 °F /  3.3 °C 35.2 °F /  1.8 °C 30.31 in /  1026.3 hPa Calm     90 % 0.00 in /  0 mm
02:40 37.5 °F /  3.1 °C 34.8 °F /  1.6 °C 30.31 in /  1026.3 hPa Calm     90 % 0.00 in /  0 mm
02:45 37.2 °F /  2.9 °C 34.5 °F /  1.4 °C 30.31 in /  1026.3 hPa Calm     90 % 0.00 in /  0 mm
02:50 37.0 °F /  2.8 °C 34.6 °F /  1.4 °C 30.31 in /  1026.3 hPa Calm     91 % 0.00 in /  0 mm
02:55 37.0 °F /  2.8 °C 34.9 °F /  1.6 °C 30.31 in /  1026.3 hPa Calm     92 % 0.00 in /  0 mm
03:00 37.2 °F /  2.9 °C 35.1 °F /  1.7 °C 30.31 in /  1026.3 hPa Calm     92 % 0.00 in /  0 mm
03:05 37.5 °F /  3.1 °C 35.4 °F /  1.9 °C 30.31 in /  1026.3 hPa Calm     92 % 0.00 in /  0 mm
03:10 37.7 °F /  3.2 °C 35.6 °F /  2 °C 30.32 in /  1026.6 hPa Calm     92 % 0.00 in /  0 mm
03:15 37.9 °F /  3.3 °C 36.1 °F /  2.3 °C 30.32 in /  1026.6 hPa Calm     93 % 0.00 in /  0 mm
03:21 38.1 °F /  3.4 °C 36.3 °F /  2.4 °C 30.32 in /  1026.6 hPa Calm     93 % 0.00 in /  0 mm
03:26 38.2 °F /  3.4 °C 36.4 °F /  2.4 °C 30.32 in /  1026.6 hPa Calm     93 % 0.00 in /  0 mm
03:31 38.2 °F /  3.4 °C 36.1 °F /  2.3 °C 30.32 in /  1026.6 hPa Calm     92 % 0.00 in /  0 mm
03:36 38.1 °F /  3.4 °C 36.0 °F /  2.2 °C 30.32 in /  1026.6 hPa Calm     92 % 0.00 in /  0 mm
03:41 38.2 °F /  3.4 °C 36.1 °F /  2.3 °C 30.31 in /  1026.3 hPa Calm     92 % 0.00 in /  0 mm
03:46 38.2 °F /  3.4 °C 36.1 °F /  2.3 °C 30.31 in /  1026.3 hPa Calm     92 % 0.00 in /  0 mm
03:51 38.1 °F /  3.4 °C 36.0 °F /  2.2 °C 30.31 in /  1026.3 hPa Calm     92 % 0.00 in /  0 mm
03:56 37.9 °F /  3.3 °C 35.5 °F /  1.9 °C 30.31 in /  1026.3 hPa Calm     91 % 0.00 in /  0 mm
04:01 37.5 °F /  3.1 °C 35.1 °F /  1.7 °C 30.31 in /  1026.3 hPa Calm     91 % 0.00 in /  0 mm
04:06 37.2 °F /  2.9 °C 34.8 °F /  1.6 °C 30.31 in /  1026.3 hPa Calm     91 % 0.00 in /  0 mm
04:11 37.1 °F /  2.8 °C 35.0 °F /  1.7 °C 30.31 in /  1026.3 hPa Calm     92 % 0.00 in /  0 mm
04:16 37.0 °F /  2.8 °C 34.9 °F /  1.6 °C 30.31 in /  1026.3 hPa Calm     92 % 0.00 in /  0 mm
04:21 36.3 °F /  2.4 °C 33.9 °F /  1.1 °C 30.31 in /  1026.3 hPa Calm     91 % 0.00 in /  0 mm
04:26 35.9 °F /  2.2 °C 33.5 °F /  0.8 °C 30.31 in /  1026.3 hPa Calm     91 % 0.00 in /  0 mm
04:31 35.7 °F /  2.1 °C 33.6 °F /  0.9 °C 30.30 in /  1026 hPa Calm     92 % 0.00 in /  0 mm
04:36 35.6 °F /  2 °C 33.5 °F /  0.8 °C 30.30 in /  1026 hPa Calm     92 % 0.00 in /  0 mm
04:46 35.4 °F /  1.9 °C 33.6 °F /  0.9 °C 30.30 in /  1026 hPa Calm     93 % 0.00 in /  0 mm
04:51 35.3 °F /  1.8 °C 33.5 °F /  0.8 °C 30.30 in /  1026 hPa Calm     93 % 0.00 in /  0 mm
04:56 35.6 °F /  2 °C 33.8 °F /  1 °C 30.30 in /  1026 hPa Calm     93 % 0.00 in /  0 mm
05:06 35.9 °F /  2.2 °C 34.3 °F /  1.3 °C 30.30 in /  1026 hPa Calm     94 % 0.00 in /  0 mm
05:11 36.0 °F /  2.2 °C 34.4 °F /  1.3 °C 30.30 in /  1026 hPa Calm     94 % 0.00 in /  0 mm
05:16 35.9 °F /  2.2 °C 34.1 °F /  1.2 °C 30.30 in /  1026 hPa Calm     93 % 0.00 in /  0 mm
05:21 35.7 °F /  2.1 °C 33.9 °F /  1.1 °C 30.30 in /  1026 hPa Calm     93 % 0.00 in /  0 mm
05:26 35.7 °F /  2.1 °C 33.9 °F /  1.1 °C 30.30 in /  1026 hPa Calm     93 % 0.00 in /  0 mm
05:31 35.6 °F /  2 °C 33.8 °F /  1 °C 30.30 in /  1026 hPa Calm     93 % 0.00 in /  0 mm
05:36 35.6 °F /  2 °C 33.8 °F /  1 °C 30.31 in /  1026.3 hPa Calm     93 % 0.00 in /  0 mm
05:41 35.8 °F /  2.1 °C 34.2 °F /  1.2 °C 30.31 in /  1026.3 hPa Calm     94 % 0.00 in /  0 mm
05:46 36.2 °F /  2.3 °C 34.6 °F /  1.4 °C 30.31 in /  1026.3 hPa Calm     94 % 0.00 in /  0 mm
05:51 36.3 °F /  2.4 °C 34.7 °F /  1.5 °C 30.31 in /  1026.3 hPa Calm     94 % 0.00 in /  0 mm
05:56 36.3 °F /  2.4 °C 34.7 °F /  1.5 °C 30.31 in /  1026.3 hPa Calm     94 % 0.00 in /  0 mm
06:01 36.2 °F /  2.3 °C 34.6 °F /  1.4 °C 30.31 in /  1026.3 hPa Calm     94 % 0.00 in /  0 mm
06:11 36.0 °F /  2.2 °C 34.4 °F /  1.3 °C 30.31 in /  1026.3 hPa Calm     94 % 0.00 in /  0 mm
06:16 36.1 °F /  2.3 °C 34.5 °F /  1.4 °C 30.31 in /  1026.3 hPa Calm     94 % 0.00 in /  0 mm
06:21 36.2 °F /  2.3 °C 34.6 °F /  1.4 °C 30.31 in /  1026.3 hPa Calm     94 % 0.00 in /  0 mm
06:26 36.2 °F /  2.3 °C 34.6 °F /  1.4 °C 30.31 in /  1026.3 hPa Calm     94 % 0.00 in /  0 mm
06:31 36.1 °F /  2.3 °C 34.5 °F /  1.4 °C 30.31 in /  1026.3 hPa Calm     94 % 0.00 in /  0 mm
06:36 35.8 °F /  2.1 °C 34.2 °F /  1.2 °C 30.31 in /  1026.3 hPa Calm     94 % 0.00 in /  0 mm
06:41 35.5 °F /  1.9 °C 33.9 °F /  1.1 °C 30.31 in /  1026.3 hPa Calm     94 % 0.00 in /  0 mm
06:51 35.1 °F /  1.7 °C 33.5 °F /  0.8 °C 30.31 in /  1026.3 hPa Calm     94 % 0.00 in /  0 mm
06:56 35.0 °F /  1.7 °C 33.4 °F /  0.8 °C 30.31 in /  1026.3 hPa Calm     94 % 0.00 in /  0 mm
07:06 34.9 °F /  1.6 °C 33.3 °F /  0.7 °C 30.32 in /  1026.6 hPa Calm     94 % 0.00 in /  0 mm
07:11 35.2 °F /  1.8 °C 33.6 °F /  0.9 °C 30.32 in /  1026.6 hPa Calm     94 % 0.00 in /  0 mm
07:16 35.3 °F /  1.8 °C 33.7 °F /  0.9 °C 30.31 in /  1026.3 hPa North 1.2 mph /  1.9 km/h 1.2 mph /  1.9 km/h 94 % 0.00 in /  0 mm
07:21 35.4 °F /  1.9 °C 33.8 °F /  1 °C 30.31 in /  1026.3 hPa Calm     94 % 0.00 in /  0 mm
07:26 35.6 °F /  2 °C 34.0 °F /  1.1 °C 30.31 in /  1026.3 hPa North 1.2 mph /  1.9 km/h 1.2 mph /  1.9 km/h 94 % 0.00 in /  0 mm
07:31 35.8 °F /  2.1 °C 34.2 °F /  1.2 °C 30.31 in /  1026.3 hPa Calm     94 % 0.00 in /  0 mm
07:36 36.2 °F /  2.3 °C 34.6 °F /  1.4 °C 30.31 in /  1026.3 hPa Calm     94 % 0.00 in /  0 mm
07:41 36.6 °F /  2.6 °C 35.0 °F /  1.7 °C 30.31 in /  1026.3 hPa Calm     94 % 0.00 in /  0 mm
07:46 37.2 °F /  2.9 °C 35.9 °F /  2.2 °C 30.31 in /  1026.3 hPa North 1.2 mph /  1.9 km/h   95 % 0.00 in /  0 mm
07:51 37.8 °F /  3.2 °C 36.5 °F /  2.5 °C 30.31 in /  1026.3 hPa Calm     95 % 0.00 in /  0 mm
07:56 38.4 °F /  3.6 °C 36.8 °F /  2.7 °C 30.31 in /  1026.3 hPa Calm     94 % 0.00 in /  0 mm
08:01 39.3 °F /  4.1 °C 37.7 °F /  3.2 °C 30.32 in /  1026.6 hPa Calm     94 % 0.00 in /  0 mm
08:06 40.8 °F /  4.9 °C 39.2 °F /  4 °C 30.31 in /  1026.3 hPa Calm     94 % 0.00 in /  0 mm
08:11 42.0 °F /  5.6 °C 39.6 °F /  4.2 °C 30.31 in /  1026.3 hPa Calm     91 % 0.00 in /  0 mm
08:16 43.1 °F /  6.2 °C 40.1 °F /  4.5 °C 30.31 in /  1026.3 hPa Calm     89 % 0.00 in /  0 mm
08:21 44.1 °F /  6.7 °C 40.5 °F /  4.7 °C 30.31 in /  1026.3 hPa Calm     87 % 0.00 in /  0 mm
08:31 45.6 °F /  7.6 °C 40.7 °F /  4.8 °C 30.32 in /  1026.6 hPa Calm     83 % 0.00 in /  0 mm
08:36 45.8 °F /  7.7 °C 40.6 °F /  4.8 °C 30.32 in /  1026.6 hPa Calm     82 % 0.00 in /  0 mm
08:41 46.1 °F /  7.8 °C 40.6 °F /  4.8 °C 30.32 in /  1026.6 hPa Calm     81 % 0.00 in /  0 mm
08:46 46.6 °F /  8.1 °C 41.1 °F /  5.1 °C 30.32 in /  1026.6 hPa Calm     81 % 0.00 in /  0 mm
08:56 47.6 °F /  8.7 °C 41.1 °F /  5.1 °C 30.32 in /  1026.6 hPa Calm     78 % 0.00 in /  0 mm
09:01 48.6 °F /  9.2 °C 42.7 °F /  5.9 °C 30.32 in /  1026.6 hPa Calm     80 % 0.00 in /  0 mm
09:06 49.7 °F /  9.8 °C 43.8 °F /  6.6 °C 30.32 in /  1026.6 hPa Calm     80 % 0.00 in /  0 mm
09:11 50.3 °F /  10.2 °C 43.7 °F /  6.5 °C 30.32 in /  1026.6 hPa Calm     78 % 0.00 in /  0 mm
09:16 49.3 °F /  9.6 °C 43.1 °F /  6.2 °C 30.32 in /  1026.6 hPa WNW 1.2 mph /  1.9 km/h   79 % 0.00 in /  0 mm
09:21 49.1 °F /  9.5 °C 43.2 °F /  6.2 °C 30.32 in /  1026.6 hPa Calm     80 % 0.00 in /  0 mm
09:27 50.3 °F /  10.2 °C 43.7 °F /  6.5 °C 30.32 in /  1026.6 hPa Calm     78 % 0.00 in /  0 mm
09:31 51.2 °F /  10.7 °C 43.2 °F /  6.2 °C 30.32 in /  1026.6 hPa SSE 1.0 mph /  1.6 km/h   74 % 0.00 in /  0 mm
09:37 51.7 °F /  10.9 °C 42.6 °F /  5.9 °C 30.32 in /  1026.6 hPa ENE 1.2 mph /  1.9 km/h 1.2 mph /  1.9 km/h 71 % 0.00 in /  0 mm
09:42 52.0 °F /  11.1 °C 43.3 °F /  6.3 °C 30.32 in /  1026.6 hPa Calm     72 % 0.00 in /  0 mm
09:47 52.4 °F /  11.3 °C 43.3 °F /  6.3 °C 30.33 in /  1027 hPa WNW 1.2 mph /  1.9 km/h 1.2 mph /  1.9 km/h 71 % 0.00 in /  0 mm
09:52 52.5 °F /  11.4 °C 43.4 °F /  6.3 °C 30.33 in /  1027 hPa SE 1.2 mph /  1.9 km/h 1.2 mph /  1.9 km/h 71 % 0.00 in /  0 mm
09:57 52.8 °F /  11.6 °C 42.9 °F /  6.1 °C 30.33 in /  1027 hPa Calm     69 % 0.00 in /  0 mm
10:02 52.8 °F /  11.6 °C 42.5 °F /  5.8 °C 30.33 in /  1027 hPa NW 1.2 mph /  1.9 km/h 1.2 mph /  1.9 km/h 68 % 0.00 in /  0 mm
10:07 52.4 °F /  11.3 °C 42.5 °F /  5.8 °C 30.33 in /  1027 hPa Calm     69 % 0.00 in /  0 mm
10:12 52.0 °F /  11.1 °C 41.8 °F /  5.4 °C 30.33 in /  1027 hPa NW 1.2 mph /  1.9 km/h 1.2 mph /  1.9 km/h 68 % 0.00 in /  0 mm
10:17 52.1 °F /  11.2 °C 41.9 °F /  5.5 °C 30.33 in /  1027 hPa Calm     68 % 0.00 in /  0 mm
10:22 52.6 °F /  11.4 °C 42.3 °F /  5.7 °C 30.33 in /  1027 hPa Calm     68 % 0.00 in /  0 mm
10:27 52.9 °F /  11.6 °C 42.2 °F /  5.7 °C 30.32 in /  1026.6 hPa Calm     67 % 0.00 in /  0 mm
10:32 53.7 °F /  12.1 °C 42.6 °F /  5.9 °C 30.32 in /  1026.6 hPa Calm     66 % 0.00 in /  0 mm
10:37 54.3 °F /  12.4 °C 43.2 °F /  6.2 °C 30.32 in /  1026.6 hPa Calm     66 % 0.00 in /  0 mm
10:42 54.0 °F /  12.2 °C 42.9 °F /  6.1 °C 30.32 in /  1026.6 hPa Calm     66 % 0.00 in /  0 mm
10:47 54.4 °F /  12.4 °C 42.9 °F /  6.1 °C 30.32 in /  1026.6 hPa Calm     65 % 0.00 in /  0 mm
10:52 54.1 °F /  12.3 °C 41.8 °F /  5.4 °C 30.32 in /  1026.6 hPa WNW 1.2 mph /  1.9 km/h 1.2 mph /  1.9 km/h 63 % 0.00 in /  0 mm
10:57 54.2 °F /  12.3 °C 42.3 °F /  5.7 °C 30.32 in /  1026.6 hPa ESE 1.2 mph /  1.9 km/h   64 % 0.00 in /  0 mm
11:02 54.6 °F /  12.6 °C 42.3 °F /  5.7 °C 30.31 in /  1026.3 hPa NW 2.3 mph /  3.7 km/h 2.3 mph /  3.7 km/h 63 % 0.00 in /  0 mm
11:07 54.8 °F /  12.7 °C 42.0 °F /  5.6 °C 30.31 in /  1026.3 hPa WNW 2.3 mph /  3.7 km/h 2.3 mph /  3.7 km/h 62 % 0.00 in /  0 mm
11:12 54.8 °F /  12.7 °C 43.3 °F /  6.3 °C 30.31 in /  1026.3 hPa Calm     65 % 0.00 in /  0 mm
11:17 55.2 °F /  12.9 °C 42.8 °F /  6 °C 30.31 in /  1026.3 hPa NW 2.3 mph /  3.7 km/h 2.3 mph /  3.7 km/h 63 % 0.00 in /  0 mm
11:22 55.1 °F /  12.8 °C 42.3 °F /  5.7 °C 30.31 in /  1026.3 hPa WNW 1.2 mph /  1.9 km/h 1.2 mph /  1.9 km/h 62 % 0.00 in /  0 mm
11:32 55.4 °F /  13 °C 42.6 °F /  5.9 °C 30.30 in /  1026 hPa NNW 2.3 mph /  3.7 km/h 2.3 mph /  3.7 km/h 62 % 0.00 in /  0 mm
11:37 55.6 °F /  13.1 °C 42.8 °F /  6 °C 30.30 in /  1026 hPa Calm   0.1 mph /  0.2 km/h 62 % 0.00 in /  0 mm
11:42 56.4 °F /  13.6 °C 43.5 °F /  6.4 °C 30.30 in /  1026 hPa Calm     62 % 0.00 in /  0 mm
11:52 56.8 °F /  13.8 °C 43.1 °F /  6.2 °C 30.29 in /  1025.6 hPa West 2.0 mph /  3.2 km/h 2.0 mph /  3.2 km/h 60 % 0.00 in /  0 mm
11:57 56.8 °F /  13.8 °C 42.6 °F /  5.9 °C 30.29 in /  1025.6 hPa West 2.3 mph /  3.7 km/h 2.3 mph /  3.7 km/h 59 % 0.00 in /  0 mm
12:02 56.9 °F /  13.8 °C 43.2 °F /  6.2 °C 30.29 in /  1025.6 hPa Calm     60 % 0.00 in /  0 mm
12:07 57.3 °F /  14.1 °C 43.1 °F /  6.2 °C 30.28 in /  1025.3 hPa WNW 2.3 mph /  3.7 km/h 2.3 mph /  3.7 km/h 59 % 0.00 in /  0 mm
12:12 57.4 °F /  14.1 °C 43.6 °F /  6.4 °C 30.28 in /  1025.3 hPa NW 2.3 mph /  3.7 km/h 2.3 mph /  3.7 km/h 60 % 0.00 in /  0 mm
12:17 58.2 °F /  14.6 °C 45.2 °F /  7.3 °C 30.28 in /  1025.3 hPa Calm     62 % 0.00 in /  0 mm
12:22 58.6 °F /  14.8 °C 43.9 °F /  6.6 °C 30.28 in /  1025.3 hPa Calm     58 % 0.00 in /  0 mm
12:27 58.7 °F /  14.8 °C 44.4 °F /  6.9 °C 30.27 in /  1024.9 hPa WNW 1.2 mph /  1.9 km/h 1.2 mph /  1.9 km/h 59 % 0.00 in /  0 mm
12:32 58.6 °F /  14.8 °C 43.9 °F /  6.6 °C 30.27 in /  1024.9 hPa WNW 1.2 mph /  1.9 km/h 1.2 mph /  1.9 km/h 58 % 0.00 in /  0 mm
12:37 58.7 °F /  14.8 °C 44.4 °F /  6.9 °C 30.27 in /  1024.9 hPa ESE 2.3 mph /  3.7 km/h 2.3 mph /  3.7 km/h 59 % 0.00 in /  0 mm
12:42 59.0 °F /  15 °C 44.7 °F /  7.1 °C 30.26 in /  1024.6 hPa Calm     59 % 0.00 in /  0 mm
12:47 59.3 °F /  15.2 °C 45.0 °F /  7.2 °C 30.26 in /  1024.6 hPa Calm     59 % 0.00 in /  0 mm
12:52 59.6 °F /  15.3 °C 44.8 °F /  7.1 °C 30.26 in /  1024.6 hPa NW 1.2 mph /  1.9 km/h 1.2 mph /  1.9 km/h 58 % 0.00 in /  0 mm
12:57 59.5 °F /  15.3 °C 44.7 °F /  7.1 °C 30.26 in /  1024.6 hPa NW 1.2 mph /  1.9 km/h   58 % 0.00 in /  0 mm
13:02 59.5 °F /  15.3 °C 44.7 °F /  7.1 °C 30.25 in /  1024.3 hPa NW 1.2 mph /  1.9 km/h 1.2 mph /  1.9 km/h 58 % 0.00 in /  0 mm
13:07 60.0 °F /  15.6 °C 45.2 °F /  7.3 °C 30.25 in /  1024.3 hPa NW 2.3 mph /  3.7 km/h 2.3 mph /  3.7 km/h 58 % 0.00 in /  0 mm
13:12 60.1 °F /  15.6 °C 44.8 °F /  7.1 °C 30.25 in /  1024.3 hPa NW 2.3 mph /  3.7 km/h 2.3 mph /  3.7 km/h 57 % 0.00 in /  0 mm
13:17 60.2 °F /  15.7 °C 44.9 °F /  7.2 °C 30.25 in /  1024.3 hPa WNW 1.2 mph /  1.9 km/h 1.2 mph /  1.9 km/h 57 % 0.00 in /  0 mm
13:22 60.4 °F /  15.8 °C 45.1 °F /  7.3 °C 30.25 in /  1024.3 hPa NNW 1.2 mph /  1.9 km/h   57 % 0.00 in /  0 mm
13:32 61.2 °F /  16.2 °C 45.8 °F /  7.7 °C 30.24 in /  1023.9 hPa South 1.2 mph /  1.9 km/h   57 % 0.00 in /  0 mm
13:37 61.3 °F /  16.3 °C 45.5 °F /  7.5 °C 30.24 in /  1023.9 hPa NW 3.5 mph /  5.6 km/h 3.5 mph /  5.6 km/h 56 % 0.00 in /  0 mm
13:47 61.7 °F /  16.5 °C 46.3 °F /  7.9 °C 30.24 in /  1023.9 hPa Calm     57 % 0.00 in /  0 mm
13:52 62.0 °F /  16.7 °C 45.2 °F /  7.3 °C 30.24 in /  1023.9 hPa WNW 1.2 mph /  1.9 km/h 1.2 mph /  1.9 km/h 54 % 0.00 in /  0 mm
13:57 61.8 °F /  16.6 °C 45.0 °F /  7.2 °C 30.23 in /  1023.6 hPa WNW 1.2 mph /  1.9 km/h 1.2 mph /  1.9 km/h 54 % 0.00 in /  0 mm
14:02 61.8 °F /  16.6 °C 45.9 °F /  7.7 °C 30.23 in /  1023.6 hPa NW 3.5 mph /  5.6 km/h 3.5 mph /  5.6 km/h 56 % 0.00 in /  0 mm
14:07 61.6 °F /  16.4 °C 45.7 °F /  7.6 °C 30.23 in /  1023.6 hPa Calm     56 % 0.00 in /  0 mm
14:12 61.8 °F /  16.6 °C 45.9 °F /  7.7 °C 30.23 in /  1023.6 hPa NW 3.5 mph /  5.6 km/h 3.5 mph /  5.6 km/h 56 % 0.00 in /  0 mm
14:17 61.7 °F /  16.5 °C 45.4 °F /  7.4 °C 30.23 in /  1023.6 hPa Calm   0.6 mph /  1 km/h 55 % 0.00 in /  0 mm
14:22 61.8 °F /  16.6 °C 45.9 °F /  7.7 °C 30.23 in /  1023.6 hPa NNW 1.0 mph /  1.6 km/h   56 % 0.00 in /  0 mm
14:32 62.0 °F /  16.7 °C 45.2 °F /  7.3 °C 30.23 in /  1023.6 hPa WNW 1.2 mph /  1.9 km/h 1.2 mph /  1.9 km/h 54 % 0.00 in /  0 mm
14:37 61.8 °F /  16.6 °C 45.9 °F /  7.7 °C 30.23 in /  1023.6 hPa WNW 1.2 mph /  1.9 km/h   56 % 0.00 in /  0 mm
14:42 62.0 °F /  16.7 °C 45.6 °F /  7.6 °C 30.23 in /  1023.6 hPa Calm     55 % 0.00 in /  0 mm
14:52 61.9 °F /  16.6 °C 46.0 °F /  7.8 °C 30.23 in /  1023.6 hPa NW 2.3 mph /  3.7 km/h 2.3 mph /  3.7 km/h 56 % 0.00 in /  0 mm
14:57 61.6 °F /  16.4 °C 46.2 °F /  7.9 °C 30.22 in /  1023.2 hPa WNW 1.2 mph /  1.9 km/h   57 % 0.00 in /  0 mm
15:02 61.5 °F /  16.4 °C 46.1 °F /  7.8 °C 30.22 in /  1023.2 hPa Calm     57 % 0.00 in /  0 mm
15:13 61.5 °F /  16.4 °C 46.6 °F /  8.1 °C 30.22 in /  1023.2 hPa NW 3.5 mph /  5.6 km/h 3.5 mph /  5.6 km/h 58 % 0.00 in /  0 mm
15:18 61.3 °F /  16.3 °C 45.9 °F /  7.7 °C 30.22 in /  1023.2 hPa NW 3.5 mph /  5.6 km/h 3.5 mph /  5.6 km/h 57 % 0.00 in /  0 mm
15:23 61.1 °F /  16.2 °C 46.2 °F /  7.9 °C 30.22 in /  1023.2 hPa NW 1.2 mph /  1.9 km/h 1.2 mph /  1.9 km/h 58 % 0.00 in /  0 mm
15:28 61.1 °F /  16.2 °C 46.2 °F /  7.9 °C 30.22 in /  1023.2 hPa NNW 3.5 mph /  5.6 km/h 3.5 mph /  5.6 km/h 58 % 0.00 in /  0 mm
15:33 61.0 °F /  16.1 °C 45.7 °F /  7.6 °C 30.22 in /  1023.2 hPa WNW 1.2 mph /  1.9 km/h   57 % 0.00 in /  0 mm
15:43 61.0 °F /  16.1 °C 46.6 °F /  8.1 °C 30.22 in /  1023.2 hPa Calm     59 % 0.00 in /  0 mm
15:48 60.9 °F /  16.1 °C 46.9 °F /  8.3 °C 30.22 in /  1023.2 hPa Calm     60 % 0.00 in /  0 mm
15:53 60.9 °F /  16.1 °C 46.5 °F /  8.1 °C 30.22 in /  1023.2 hPa NW 1.2 mph /  1.9 km/h   59 % 0.00 in /  0 mm
16:03 60.6 °F /  15.9 °C 46.6 °F /  8.1 °C 30.22 in /  1023.2 hPa Calm     60 % 0.00 in /  0 mm
16:08 60.5 °F /  15.8 °C 47.0 °F /  8.3 °C 30.22 in /  1023.2 hPa Calm     61 % 0.00 in /  0 mm
16:18 60.2 °F /  15.7 °C 46.7 °F /  8.2 °C 30.22 in /  1023.2 hPa Calm     61 % 0.00 in /  0 mm
16:23 60.0 °F /  15.6 °C 46.9 °F /  8.3 °C 30.22 in /  1023.2 hPa Calm     62 % 0.00 in /  0 mm
16:28 59.8 °F /  15.4 °C 46.7 °F /  8.2 °C 30.22 in /  1023.2 hPa Calm     62 % 0.00 in /  0 mm
16:33 59.6 °F /  15.3 °C 46.6 °F /  8.1 °C 30.22 in /  1023.2 hPa Calm     62 % 0.00 in /  0 mm
16:43 59.1 °F /  15.1 °C 46.5 °F /  8.1 °C 30.22 in /  1023.2 hPa Calm     63 % 0.00 in /  0 mm
16:48 58.9 °F /  14.9 °C 47.2 °F /  8.4 °C 30.22 in /  1023.2 hPa Calm     65 % 0.00 in /  0 mm
16:53 58.5 °F /  14.7 °C 46.8 °F /  8.2 °C 30.22 in /  1023.2 hPa Calm     65 % 0.00 in /  0 mm
16:58 58.1 °F /  14.5 °C 46.8 °F /  8.2 °C 30.22 in /  1023.2 hPa Calm     66 % 0.00 in /  0 mm
17:03 57.6 °F /  14.2 °C 47.1 °F /  8.4 °C 30.22 in /  1023.2 hPa Calm     68 % 0.00 in /  0 mm
17:08 57.1 °F /  13.9 °C 47.0 °F /  8.3 °C 30.22 in /  1023.2 hPa Calm     69 % 0.00 in /  0 mm
17:13 56.5 °F /  13.6 °C 46.8 °F /  8.2 °C 30.22 in /  1023.2 hPa Calm     70 % 0.00 in /  0 mm
17:18 56.0 °F /  13.3 °C 46.7 °F /  8.2 °C 30.22 in /  1023.2 hPa Calm     71 % 0.00 in /  0 mm
17:23 55.3 °F /  12.9 °C 46.8 °F /  8.2 °C 30.22 in /  1023.2 hPa Calm     73 % 0.00 in /  0 mm
17:28 54.6 °F /  12.6 °C 46.5 °F /  8.1 °C 30.22 in /  1023.2 hPa Calm     74 % 0.00 in /  0 mm
17:38 53.8 °F /  12.1 °C 47.1 °F /  8.4 °C 30.22 in /  1023.2 hPa Calm     78 % 0.00 in /  0 mm
17:43 53.4 °F /  11.9 °C 47.0 °F /  8.3 °C 30.22 in /  1023.2 hPa Calm     79 % 0.00 in /  0 mm
17:48 52.9 °F /  11.6 °C 47.2 °F /  8.4 °C 30.23 in /  1023.6 hPa Calm     81 % 0.00 in /  0 mm
17:58 52.2 °F /  11.2 °C 47.2 °F /  8.4 °C 30.23 in /  1023.6 hPa Calm     83 % 0.00 in /  0 mm
18:03 51.8 °F /  11 °C 46.8 °F /  8.2 °C 30.23 in /  1023.6 hPa Calm     83 % 0.00 in /  0 mm
18:08 51.4 °F /  10.8 °C 46.7 °F /  8.2 °C 30.23 in /  1023.6 hPa Calm     84 % 0.00 in /  0 mm
18:13 50.9 °F /  10.5 °C 46.6 °F /  8.1 °C 30.23 in /  1023.6 hPa Calm     85 % 0.00 in /  0 mm
18:18 50.5 °F /  10.3 °C 46.2 °F /  7.9 °C 30.23 in /  1023.6 hPa Calm     85 % 0.00 in /  0 mm
18:23 50.2 °F /  10.1 °C 46.2 °F /  7.9 °C 30.23 in /  1023.6 hPa Calm     86 % 0.00 in /  0 mm
18:28 50.0 °F /  10 °C 46.3 °F /  7.9 °C 30.23 in /  1023.6 hPa Calm     87 % 0.00 in /  0 mm
18:33 50.0 °F /  10 °C 46.0 °F /  7.8 °C 30.23 in /  1023.6 hPa Calm     86 % 0.00 in /  0 mm
18:38 49.8 °F /  9.9 °C 45.8 °F /  7.7 °C 30.23 in /  1023.6 hPa Calm     86 % 0.00 in /  0 mm
18:43 49.5 °F /  9.7 °C 45.5 °F /  7.5 °C 30.23 in /  1023.6 hPa Calm     86 % 0.00 in /  0 mm
18:48 49.1 °F /  9.5 °C 45.1 °F /  7.3 °C 30.24 in /  1023.9 hPa Calm     86 % 0.00 in /  0 mm
18:53 48.7 °F /  9.3 °C 44.7 °F /  7.1 °C 30.24 in /  1023.9 hPa SSE 1.2 mph /  1.9 km/h   86 % 0.00 in /  0 mm
18:58 48.2 °F /  9 °C 44.8 °F /  7.1 °C 30.24 in /  1023.9 hPa Calm     88 % 0.00 in /  0 mm
19:03 48.1 °F /  8.9 °C 45.0 °F /  7.2 °C 30.24 in /  1023.9 hPa Calm     89 % 0.00 in /  0 mm
19:08 47.9 °F /  8.8 °C 44.5 °F /  6.9 °C 30.24 in /  1023.9 hPa Calm     88 % 0.00 in /  0 mm
19:18 47.6 °F /  8.7 °C 44.5 °F /  6.9 °C 30.24 in /  1023.9 hPa Calm     89 % 0.00 in /  0 mm
19:48 47.8 °F /  8.8 °C 45.3 °F /  7.4 °C 30.23 in /  1023.6 hPa Calm     91 % 0.00 in /  0 mm
19:53 47.9 °F /  8.8 °C 45.1 °F /  7.3 °C 30.24 in /  1023.9 hPa Calm     90 % 0.00 in /  0 mm
19:58 47.5 °F /  8.6 °C 44.4 °F /  6.9 °C 30.24 in /  1023.9 hPa Calm     89 % 0.00 in /  0 mm
20:08 47.2 °F /  8.4 °C 44.1 °F /  6.7 °C 30.24 in /  1023.9 hPa Calm     89 % 0.00 in /  0 mm
20:18 46.9 °F /  8.3 °C 43.8 °F /  6.6 °C 30.24 in /  1023.9 hPa Calm     89 % 0.00 in /  0 mm
20:23 46.6 °F /  8.1 °C 43.8 °F /  6.6 °C 30.24 in /  1023.9 hPa Calm     90 % 0.00 in /  0 mm
20:28 46.3 °F /  7.9 °C 43.5 °F /  6.4 °C 30.24 in /  1023.9 hPa Calm     90 % 0.00 in /  0 mm
20:33 46.2 °F /  7.9 °C 43.7 °F /  6.5 °C 30.24 in /  1023.9 hPa Calm     91 % 0.00 in /  0 mm
20:43 45.9 °F /  7.7 °C 43.7 °F /  6.5 °C 30.24 in /  1023.9 hPa Calm     92 % 0.00 in /  0 mm
20:48 46.0 °F /  7.8 °C 43.8 °F /  6.6 °C 30.24 in /  1023.9 hPa Calm     92 % 0.00 in /  0 mm
20:53 45.8 °F /  7.7 °C 43.3 °F /  6.3 °C 30.24 in /  1023.9 hPa Calm     91 % 0.00 in /  0 mm
20:58 45.5 °F /  7.5 °C 43.0 °F /  6.1 °C 30.24 in /  1023.9 hPa Calm     91 % 0.00 in /  0 mm
21:03 45.4 °F /  7.4 °C 43.2 °F /  6.2 °C 30.24 in /  1023.9 hPa Calm     92 % 0.00 in /  0 mm
21:13 44.9 °F /  7.2 °C 42.7 °F /  5.9 °C 30.24 in /  1023.9 hPa Calm     92 % 0.00 in /  0 mm
21:18 44.7 °F /  7.1 °C 42.5 °F /  5.8 °C 30.24 in /  1023.9 hPa Calm     92 % 0.00 in /  0 mm
21:28 44.6 °F /  7 °C 42.7 °F /  5.9 °C 30.24 in /  1023.9 hPa Calm     93 % 0.00 in /  0 mm
21:33 44.5 °F /  6.9 °C 42.6 °F /  5.9 °C 30.24 in /  1023.9 hPa Calm     93 % 0.00 in /  0 mm
21:38 44.3 °F /  6.8 °C 42.4 °F /  5.8 °C 30.24 in /  1023.9 hPa Calm     93 % 0.00 in /  0 mm
21:43 44.0 °F /  6.7 °C 42.1 °F /  5.6 °C 30.24 in /  1023.9 hPa Calm     93 % 0.00 in /  0 mm
21:48 44.0 °F /  6.7 °C 42.1 °F /  5.6 °C 30.24 in /  1023.9 hPa Calm     93 % 0.00 in /  0 mm
21:53 43.9 °F /  6.6 °C 42.0 °F /  5.6 °C 30.24 in /  1023.9 hPa Calm     93 % 0.00 in /  0 mm
22:03 43.6 °F /  6.4 °C 41.7 °F /  5.4 °C 30.24 in /  1023.9 hPa Calm     93 % 0.00 in /  0 mm
22:08 43.2 °F /  6.2 °C 41.3 °F /  5.2 °C 30.24 in /  1023.9 hPa Calm     93 % 0.00 in /  0 mm
22:14 42.7 °F /  5.9 °C 40.8 °F /  4.9 °C 30.24 in /  1023.9 hPa Calm     93 % 0.00 in /  0 mm
22:18 42.5 °F /  5.8 °C 40.6 °F /  4.8 °C 30.24 in /  1023.9 hPa Calm     93 % 0.00 in /  0 mm
22:23 42.3 °F /  5.7 °C 40.4 °F /  4.7 °C 30.24 in /  1023.9 hPa Calm     93 % 0.00 in /  0 mm
22:28 42.2 °F /  5.7 °C 40.3 °F /  4.6 °C 30.24 in /  1023.9 hPa Calm     93 % 0.00 in /  0 mm
22:39 42.0 °F /  5.6 °C 40.1 °F /  4.5 °C 30.24 in /  1023.9 hPa Calm     93 % 0.00 in /  0 mm
22:43 42.1 °F /  5.6 °C 40.5 °F /  4.7 °C 30.24 in /  1023.9 hPa Calm     94 % 0.00 in /  0 mm
22:54 41.9 °F /  5.5 °C 40.0 °F /  4.4 °C 30.23 in /  1023.6 hPa Calm     93 % 0.00 in /  0 mm
22:59 41.7 °F /  5.4 °C 39.8 °F /  4.3 °C 30.23 in /  1023.6 hPa Calm     93 % 0.00 in /  0 mm
23:04 41.6 °F /  5.3 °C 39.7 °F /  4.3 °C 30.23 in /  1023.6 hPa Calm     93 % 0.00 in /  0 mm
23:09 41.7 °F /  5.4 °C 40.1 °F /  4.5 °C 30.23 in /  1023.6 hPa Calm     94 % 0.00 in /  0 mm
23:14 41.6 °F /  5.3 °C 40.0 °F /  4.4 °C 30.23 in /  1023.6 hPa Calm     94 % 0.00 in /  0 mm
23:19 41.4 °F /  5.2 °C 39.5 °F /  4.2 °C 30.23 in /  1023.6 hPa Calm     93 % 0.00 in /  0 mm
23:24 41.2 °F /  5.1 °C 39.3 °F /  4.1 °C 30.23 in /  1023.6 hPa Calm     93 % 0.00 in /  0 mm
23:34 39.9 °F /  4.4 °C 37.5 °F /  3.1 °C 30.23 in /  1023.6 hPa Calm     91 % 0.00 in /  0 mm
23:39 39.3 °F /  4.1 °C 36.9 °F /  2.7 °C 30.23 in /  1023.6 hPa Calm     91 % 0.00 in /  0 mm
23:49 39.0 °F /  3.9 °C 36.9 °F /  2.7 °C 30.22 in /  1023.2 hPa Calm     92 % 0.00 in /  0 mm
23:54 39.1 °F /  3.9 °C 37.2 °F /  2.9 °C 30.22 in /  1023.2 hPa Calm     93 % 0.00 in /  0 mm
23:59 39.3 °F /  4.1 °C 37.7 °F /  3.2 °C 30.22 in /  1023.2 hPa Calm     94 % 0.00 in /  0 mm
Park Place, Exeter, Tulare County, California, USA
Compliments of Weather Underground - 2.5 mb